Time;durP1;ratioP1;P1;durP2;ratioP2;P2;SDS_P1;SDS_P2;PMS_P1;PMS_P2;Temp;Humidity;BMP_temperature;BMP_pressure;BME280_temperature;BME280_humidity;BME280_pressure;Samples;Min_cycle;Max_cycle;Signal;HPM_P1;HPM_P2
2021/01/30 00:00:39;;;;;;;5.05;3.70;;;1.90;88.50;;;;;;5040018;28;20379;-68
2021/01/30 00:03:10;;;;;;;13.98;8.57;;;1.80;88.90;;;;;;5039738;28;20028;-69
2021/01/30 00:05:38;;;;;;;8.80;4.93;;;1.70;88.90;;;;;;5039613;28;20075;-69
2021/01/30 00:08:06;;;;;;;6.47;5.10;;;1.90;89.90;;;;;;5039867;28;20045;-69
2021/01/30 00:10:32;;;;;;;8.60;5.55;;;2.10;89.60;;;;;;5039553;28;20021;-69
2021/01/30 00:12:57;;;;;;;6.68;4.45;;;2.10;88.70;;;;;;5039790;28;20053;-69
2021/01/30 00:15:27;;;;;;;5.00;3.25;;;2.10;88.80;;;;;;5039492;28;20045;-69
2021/01/30 00:17:54;;;;;;;4.78;3.25;;;2.20;88.50;;;;;;5039485;28;20021;-69
2021/01/30 00:20:26;;;;;;;4.28;3.28;;;2.30;87.60;;;;;;5039594;28;20060;-69
2021/01/30 00:22:52;;;;;;;6.65;3.55;;;2.20;87.40;;;;;;5039603;28;20409;-69
2021/01/30 00:25:25;;;;;;;5.35;3.67;;;2.10;87.60;;;;;;5039552;28;20025;-69
2021/01/30 00:27:50;;;;;;;7.28;3.97;;;2.10;88.00;;;;;;5039232;28;20029;-69
2021/01/30 00:30:19;;;;;;;4.18;3.25;;;2.10;87.80;;;;;;5039021;28;20434;-69
2021/01/30 00:32:44;;;;;;;5.20;3.47;;;2.00;87.90;;;;;;5039175;28;20079;-69
2021/01/30 00:35:12;;;;;;;6.10;3.95;;;1.90;88.00;;;;;;5039230;28;20022;-69
2021/01/30 00:37:38;;;;;;;4.43;3.42;;;1.90;88.10;;;;;;5039678;28;20314;-69
2021/01/30 00:40:05;;;;;;;5.45;3.63;;;1.80;88.10;;;;;;5039041;28;20029;-68
2021/01/30 00:42:30;;;;;;;6.70;3.92;;;1.80;88.70;;;;;;5039065;28;20040;-69
2021/01/30 00:44:57;;;;;;;6.07;3.60;;;1.70;88.40;;;;;;5038924;28;20029;-69
2021/01/30 00:47:23;;;;;;;6.40;4.78;;;1.70;88.80;;;;;;5038966;28;20021;-69
2021/01/30 00:49:49;;;;;;;5.82;3.17;;;1.60;89.70;;;;;;5037907;28;20432;-69
2021/01/30 00:52:19;;;;;;;4.05;3.08;;;1.70;89.30;;;;;;5039098;28;20093;-69
2021/01/30 00:54:45;;;;;;;4.78;3.40;;;1.70;89.30;;;;;;5038882;28;20049;-69
2021/01/30 00:57:11;;;;;;;6.32;3.45;;;1.70;89.20;;;;;;5038755;28;20084;-69
2021/01/30 00:59:39;;;;;;;4.43;3.30;;;1.80;88.70;;;;;;5038683;28;20025;-69
2021/01/30 01:02:05;;;;;;;5.18;3.75;;;1.80;89.20;;;;;;5038860;28;20036;-69
2021/01/30 01:04:30;;;;;;;4.00;3.25;;;1.80;88.70;;;;;;5037538;28;20029;-69
2021/01/30 01:06:56;;;;;;;4.93;3.47;;;1.70;88.00;;;;;;5038534;28;20033;-69
2021/01/30 01:09:22;;;;;;;6.07;4.00;;;1.60;87.80;;;;;;5038403;28;20033;-69
2021/01/30 01:11:50;;;;;;;5.35;4.15;;;1.60;88.00;;;;;;5038391;28;20021;-69
2021/01/30 01:14:19;;;;;;;5.13;3.60;;;1.60;89.80;;;;;;5038686;28;20318;-69
2021/01/30 01:16:45;;;;;;;5.47;3.70;;;1.60;90.30;;;;;;5038334;28;20364;-69
2021/01/30 01:19:11;;;;;;;5.47;3.60;;;1.60;89.60;;;;;;5038627;28;20116;-69
2021/01/30 01:21:36;;;;;;;4.85;3.72;;;1.70;89.50;;;;;;5038277;28;20322;-69
2021/01/30 01:24:02;;;;;;;4.95;3.13;;;1.60;89.30;;;;;;5038155;28;20026;-69
2021/01/30 01:26:28;;;;;;;6.20;3.78;;;1.60;89.00;;;;;;5038258;28;20128;-69
2021/01/30 01:28:54;;;;;;;5.60;4.03;;;1.60;89.60;;;;;;5038092;28;20021;-69
2021/01/30 01:31:21;;;;;;;7.20;4.13;;;1.60;89.30;;;;;;5036905;28;20049;-68
2021/01/30 01:33:47;;;;;;;6.70;4.00;;;1.60;89.50;;;;;;5038007;28;20021;-69
2021/01/30 01:36:17;;;;;;;5.15;3.50;;;1.60;89.80;;;;;;5037927;28;20032;-69
2021/01/30 01:38:42;;;;;;;4.63;3.88;;;1.50;89.90;;;;;;5037839;28;20030;-69
2021/01/30 01:41:09;;;;;;;4.93;3.85;;;1.50;90.10;;;;;;5037823;28;20075;-69
2021/01/30 01:43:35;;;;;;;6.72;4.38;;;1.50;90.70;;;;;;5036865;28;20078;-69
2021/01/30 01:46:25;;;;;;;5.00;4.00;;;1.60;91.20;;;;;;5037741;28;20037;-69
2021/01/30 01:49:02;;;;;;;4.93;4.05;;;1.60;91.80;;;;;;5037715;28;20372;-69
2021/01/30 01:51:43;;;;;;;6.18;4.03;;;1.60;91.50;;;;;;5038115;28;20025;-69
2021/01/30 01:54:14;;;;;;;6.65;4.45;;;1.50;92.30;;;;;;5037855;28;20076;-69
2021/01/30 01:56:41;;;;;;;5.25;4.10;;;1.60;91.90;;;;;;5037627;28;20034;-69
2021/01/30 01:59:12;;;;;;;5.22;3.70;;;1.60;91.60;;;;;;5037583;28;20025;-69
2021/01/30 02:01:38;;;;;;;6.75;4.28;;;1.60;92.20;;;;;;5037270;28;20326;-69
2021/01/30 02:04:13;;;;;;;6.03;4.47;;;1.60;92.20;;;;;;5037772;28;20036;-69
2021/01/30 02:06:42;;;;;;;6.95;4.20;;;1.60;92.20;;;;;;5037467;28;20052;-69
2021/01/30 02:09:11;;;;;;;5.93;4.25;;;1.60;92.00;;;;;;5037323;28;20063;-69
2021/01/30 02:11:37;;;;;;;6.00;3.90;;;1.60;92.60;;;;;;5037424;28;20100;-69
2021/01/30 02:14:05;;;;;;;5.85;4.50;;;1.70;92.80;;;;;;5037713;28;20052;-69
2021/01/30 02:16:35;;;;;;;5.95;4.22;;;1.70;93.00;;;;;;5037318;28;20025;-69
2021/01/30 02:19:22;;;;;;;5.80;4.28;;;1.80;91.40;;;;;;5037232;28;20029;-69
2021/01/30 02:22:24;;;;;;;8.07;4.60;;;1.70;91.80;;;;;;5037215;28;20034;-69
2021/01/30 02:25:29;;;;;;;4.72;3.97;;;1.60;91.40;;;;;;5037327;28;20209;-69
2021/01/30 02:28:01;;;;;;;5.88;4.57;;;1.50;91.80;;;;;;5037292;28;20037;-69
2021/01/30 02:30:42;;;;;;;4.75;3.78;;;1.50;92.70;;;;;;5035774;28;20422;-69
2021/01/30 02:33:29;;;;;;;6.55;3.75;;;1.50;92.30;;;;;;5037019;28;20116;-69
2021/01/30 02:36:13;;;;;;;;;;;1.40;92.80;;;;;;5037384;28;20322;-69
2021/01/30 02:38:44;;;;;;;6.50;4.32;;;1.40;92.60;;;;;;5037134;28;19944;-69
2021/01/30 02:41:22;;;;;;;7.68;4.22;;;1.30;93.00;;;;;;5036869;28;20033;-69
2021/01/30 02:43:49;;;;;;;6.55;4.53;;;1.30;93.10;;;;;;5036911;28;20025;-69
2021/01/30 02:46:25;;;;;;;6.00;4.00;;;1.20;93.10;;;;;;5037060;28;20034;-69
2021/01/30 02:48:56;;;;;;;4.57;3.63;;;1.20;92.90;;;;;;5036825;28;20033;-69
2021/01/30 02:51:26;;;;;;;6.53;4.72;;;1.20;92.80;;;;;;5036819;28;20029;-69
2021/01/30 02:53:55;;;;;;;9.85;4.95;;;1.20;92.90;;;;;;5035571;28;20417;-69
2021/01/30 02:56:22;;;;;;;7.10;4.55;;;1.20;92.70;;;;;;5036866;28;20136;-69
2021/01/30 02:58:58;;;;;;;6.00;4.35;;;1.20;91.40;;;;;;5036682;28;20097;-69
2021/01/30 03:01:25;;;;;;;5.55;4.00;;;1.10;91.40;;;;;;5036690;28;20405;-69
2021/01/30 03:04:01;;;;;;;6.63;4.85;;;1.10;92.10;;;;;;5036898;28;20091;-69
2021/01/30 03:06:51;;;;;;;8.48;5.63;;;1.00;91.20;;;;;;5036686;28;20026;-69
2021/01/30 03:09:28;;;;;;;6.65;5.05;;;1.00;91.60;;;;;;5036643;28;20030;-69
2021/01/30 03:12:41;;;;;;;9.35;5.57;;;1.10;90.80;;;;;;5036553;28;20017;-69
2021/01/30 03:15:46;;;;;;;7.35;5.07;;;1.20;89.40;;;;;;5040033;28;20041;-69
2021/01/30 03:18:14;;;;;;;8.43;4.82;;;1.20;88.60;;;;;;5040555;28;20112;-69
2021/01/30 03:20:42;;;;;;;6.55;4.63;;;1.20;88.30;;;;;;5040702;28;20018;-69
2021/01/30 03:23:10;;;;;;;9.10;4.57;;;1.10;88.30;;;;;;5040460;28;20029;-69
2021/01/30 03:25:38;;;;;;;5.80;4.70;;;1.00;88.40;;;;;;5040745;28;20033;-69
2021/01/30 03:28:04;;;;;;;7.07;5.15;;;1.00;89.20;;;;;;5040403;28;20422;-69
2021/01/30 03:30:31;;;;;;;5.38;4.25;;;1.00;89.20;;;;;;5040127;28;20503;-69
2021/01/30 03:32:57;;;;;;;6.97;5.25;;;1.00;89.10;;;;;;5039288;28;20438;-69
2021/01/30 03:35:24;;;;;;;8.02;4.35;;;1.00;89.50;;;;;;5040204;28;20025;-69
2021/01/30 03:37:50;;;;;;;5.72;4.50;;;1.00;88.80;;;;;;5040388;28;20067;-69
2021/01/30 03:40:17;;;;;;;7.10;4.63;;;1.00;88.40;;;;;;5040366;28;20096;-69
2021/01/30 03:42:43;;;;;;;8.00;5.20;;;0.90;89.00;;;;;;5040357;28;20029;-69
2021/01/30 03:45:13;;;;;;;6.22;4.80;;;0.90;89.80;;;;;;5040247;28;20021;-69
2021/01/30 03:47:39;;;;;;;6.63;4.50;;;0.80;90.30;;;;;;5040258;28;20056;-69
2021/01/30 03:50:07;;;;;;;5.20;4.30;;;0.80;90.70;;;;;;5040332;28;20029;-69
2021/01/30 03:52:33;;;;;;;7.00;3.97;;;0.80;91.50;;;;;;5039937;28;20403;-69
2021/01/30 03:55:00;;;;;;;6.88;4.30;;;0.80;91.50;;;;;;5039962;28;20032;-69
2021/01/30 03:57:25;;;;;;;5.25;3.60;;;0.90;92.00;;;;;;5039980;28;20032;-69
2021/01/30 03:59:51;;;;;;;5.05;3.45;;;1.10;90.00;;;;;;5039811;28;20108;-69
2021/01/30 04:02:17;;;;;;;6.90;3.78;;;1.10;89.30;;;;;;5040266;28;20048;-69
2021/01/30 04:04:47;;;;;;;4.00;3.20;;;1.10;88.80;;;;;;5039758;28;20036;-69
2021/01/30 04:07:13;;;;;;;8.18;4.03;;;1.10;88.70;;;;;;5039941;28;20299;-69
2021/01/30 04:09:39;;;;;;;4.05;3.22;;;1.00;88.80;;;;;;5039840;28;20108;-69
2021/01/30 04:12:05;;;;;;;5.35;4.25;;;1.00;89.30;;;;;;5038553;28;20452;-69
2021/01/30 04:14:32;;;;;;;6.85;4.35;;;0.90;91.20;;;;;;5038481;28;20418;-69
2021/01/30 04:16:57;;;;;;;5.93;4.10;;;1.10;93.40;;;;;;5039531;28;20473;-69
2021/01/30 04:19:23;;;;;;;7.30;4.00;;;1.30;92.80;;;;;;5039481;28;20025;-69
2021/01/30 04:21:49;;;;;;;5.35;3.60;;;1.50;90.80;;;;;;5039425;28;20430;-69
2021/01/30 04:24:14;;;;;;;4.20;3.42;;;1.60;89.40;;;;;;5039214;28;20044;-69
2021/01/30 04:26:40;;;;;;;5.20;4.03;;;1.60;88.90;;;;;;5039259;28;20040;-69
2021/01/30 04:29:06;;;;;;;4.10;3.00;;;1.60;88.90;;;;;;5039720;28;20037;-69
2021/01/30 04:31:32;;;;;;;6.82;4.05;;;1.60;88.10;;;;;;5039136;28;20044;-69
2021/01/30 04:33:58;;;;;;;6.28;3.20;;;1.60;88.70;;;;;;5039244;28;20402;-69
2021/01/30 04:36:24;;;;;;;5.28;3.45;;;1.50;88.70;;;;;;5039361;28;20028;-69
2021/01/30 04:38:50;;;;;;;6.93;4.55;;;1.40;88.40;;;;;;5039157;28;20029;-69
2021/01/30 04:41:30;;;;;;;7.15;3.92;;;1.30;88.80;;;;;;5039013;28;20068;-67
2021/01/30 04:44:05;;;;;;;38.55;19.80;;;1.30;88.70;;;;;;5039313;28;20100;-69
2021/01/30 04:46:55;;;;;;;9.82;6.60;;;1.20;89.30;;;;;;5039049;28;20079;-69
2021/01/30 04:49:23;;;;;;;8.70;5.95;;;1.60;88.30;;;;;;5038839;28;20030;-69
2021/01/30 04:52:10;;;;;;;9.68;7.10;;;1.80;86.80;;;;;;5038886;28;20029;-69
2021/01/30 04:55:08;;;;;;;17.27;8.70;;;1.90;86.20;;;;;;5038922;28;20405;-69
2021/01/30 04:57:36;;;;;;;13.48;8.50;;;1.70;85.20;;;;;;5037720;28;20084;-69
2021/01/30 05:00:08;;;;;;;13.23;8.40;;;1.50;86.30;;;;;;5038682;28;20033;-69
2021/01/30 05:02:55;;;;;;;11.02;7.50;;;1.30;86.50;;;;;;5038976;28;20414;-69
2021/01/30 05:05:24;;;;;;;9.55;6.57;;;1.20;87.60;;;;;;5038868;28;20132;-67
2021/01/30 05:08:05;;;;;;;10.88;6.40;;;1.00;87.20;;;;;;5038900;28;20091;-67
2021/01/30 05:10:41;;;;;;;10.38;6.05;;;0.80;88.00;;;;;;5038747;28;20061;-69
2021/01/30 05:13:13;;;;;;;9.50;6.13;;;0.70;87.50;;;;;;5038537;28;20040;-69
2021/01/30 05:15:56;;;;;;;9.40;6.72;;;0.50;87.60;;;;;;5038449;28;20329;-69
2021/01/30 05:18:34;;;;;;;9.57;6.47;;;0.40;88.90;;;;;;5038672;28;20052;-69
2021/01/30 05:21:09;;;;;;;8.60;5.80;;;0.30;89.40;;;;;;5038314;28;20409;-69
2021/01/30 05:23:36;;;;;;;8.50;5.95;;;0.30;89.90;;;;;;5038453;28;20025;-69
2021/01/30 05:26:20;;;;;;;9.20;6.78;;;0.20;90.30;;;;;;5038596;28;20029;-69
2021/01/30 05:29:08;;;;;;;12.82;8.13;;;0.20;90.60;;;;;;5038704;28;20034;-67
2021/01/30 05:31:45;;;;;;;13.52;8.15;;;0.50;92.40;;;;;;5037900;28;20049;-67
2021/01/30 05:34:34;;;;;;;12.43;9.02;;;0.80;90.40;;;;;;5038104;28;20036;-67
2021/01/30 05:37:08;;;;;;;13.35;8.68;;;0.90;89.20;;;;;;5037608;28;20025;-67
2021/01/30 05:40:11;;;;;;;10.07;6.88;;;0.90;88.20;;;;;;5038129;28;20021;-67
2021/01/30 05:43:01;;;;;;;11.82;8.65;;;0.80;88.00;;;;;;5037900;28;20036;-69
2021/01/30 05:45:47;;;;;;;14.93;7.95;;;0.60;88.40;;;;;;5037873;28;20056;-69
2021/01/30 05:48:20;;;;;;;12.43;8.10;;;0.50;89.00;;;;;;5037739;28;20073;-67
2021/01/30 05:50:59;;;;;;;12.43;8.43;;;0.40;89.20;;;;;;5037894;28;20339;-67
2021/01/30 05:53:27;;;;;;;11.23;8.35;;;0.30;89.30;;;;;;5037920;28;20025;-67
2021/01/30 05:55:55;;;;;;;13.60;9.07;;;0.30;90.30;;;;;;5037484;28;20029;-66
2021/01/30 05:58:22;;;;;;;10.57;7.97;;;0.30;90.20;;;;;;5037927;28;20482;-67
2021/01/30 06:00:49;;;;;;;12.52;8.73;;;0.30;90.80;;;;;;5037817;28;20120;-67
2021/01/30 06:03:22;;;;;;;13.07;7.32;;;0.40;91.00;;;;;;5037601;28;20037;-67
2021/01/30 06:06:08;;;;;;;12.32;8.68;;;0.40;91.90;;;;;;5037487;28;20067;-67
2021/01/30 06:08:34;;;;;;;14.38;10.98;;;0.40;93.10;;;;;;5037396;28;20030;-67
2021/01/30 06:11:10;;;;;;;14.70;9.07;;;0.50;92.90;;;;;;5037363;28;20076;-67
2021/01/30 06:13:59;;;;;;;13.63;7.70;;;0.70;92.20;;;;;;5037566;28;20029;-67
2021/01/30 06:16:59;;;;;;;11.63;7.03;;;0.80;92.10;;;;;;5037530;28;20017;-67
2021/01/30 06:19:33;;;;;;;8.23;7.00;;;0.90;90.60;;;;;;5032537;28;20074;-67
2021/01/30 06:22:14;;;;;;;11.25;6.50;;;0.80;89.80;;;;;;5036184;28;20117;-67
2021/01/30 06:24:44;;;;;;;10.07;6.47;;;0.80;90.30;;;;;;5036122;28;20037;-67
2021/01/30 06:27:24;;;;;;;10.43;6.53;;;0.80;90.40;;;;;;5036070;28;20109;-67
2021/01/30 06:29:54;;;;;;;10.27;6.95;;;0.90;89.50;;;;;;5036998;28;20029;-69
2021/01/30 06:32:19;;;;;;;10.77;7.07;;;1.00;91.40;;;;;;5037041;28;20029;-69
2021/01/30 06:34:49;;;;;;;10.02;7.65;;;1.10;90.90;;;;;;5037223;28;20036;-69
2021/01/30 06:37:29;;;;;;;12.55;7.65;;;1.30;90.80;;;;;;5036944;28;20017;-69
2021/01/30 06:40:07;;;;;;;12.73;8.57;;;1.30;90.30;;;;;;5036995;28;20112;-68
2021/01/30 06:42:35;;;;;;;9.88;7.55;;;1.30;90.20;;;;;;5036830;28;20030;-67
2021/01/30 06:45:07;;;;;;;9.95;7.82;;;1.20;89.40;;;;;;5037046;28;20418;-67
2021/01/30 06:47:46;;;;;;;9.55;6.65;;;1.20;89.80;;;;;;5036427;28;20030;-67
2021/01/30 06:50:32;;;;;;;15.85;7.13;;;1.10;89.60;;;;;;5036643;28;20406;-67
2021/01/30 06:53:25;;;;;;;10.20;6.57;;;1.20;90.10;;;;;;5036786;28;20352;-67
2021/01/30 06:55:52;;;;;;;13.20;7.40;;;1.20;89.80;;;;;;5037091;28;20034;-67
2021/01/30 06:58:37;;;;;;;15.52;8.20;;;1.20;91.10;;;;;;5036961;28;20432;-67
2021/01/30 07:01:12;;;;;;;11.88;8.63;;;1.40;91.30;;;;;;5036948;28;20029;-67
2021/01/30 07:04:01;;;;;;;15.25;9.82;;;1.40;90.10;;;;;;5037000;28;20074;-67
2021/01/30 07:06:54;;;;;;;16.05;9.07;;;1.40;90.00;;;;;;5036641;28;20029;-67
2021/01/30 07:09:41;;;;;;;10.82;7.45;;;1.40;90.00;;;;;;5036650;28;20034;-67
2021/01/30 07:12:19;;;;;;;12.40;8.35;;;1.40;89.20;;;;;;5036810;28;20108;-67
2021/01/30 07:14:59;;;;;;;11.65;8.50;;;1.30;88.90;;;;;;5036919;28;20073;-67
2021/01/30 07:17:42;;;;;;;11.43;8.43;;;1.30;89.50;;;;;;5036543;28;20056;-67
2021/01/30 07:20:35;;;;;;;14.57;8.48;;;1.20;89.50;;;;;;5036691;28;20026;-67
2021/01/30 07:23:19;;;;;;;12.73;9.52;;;1.30;90.40;;;;;;5036156;28;20113;-69
2021/01/30 07:25:58;;;;;;;16.02;12.60;;;1.30;90.60;;;;;;5035239;28;20124;-69
2021/01/30 07:28:37;;;;;;;18.55;12.70;;;1.40;88.60;;;;;;5036396;28;20056;-67
2021/01/30 07:31:17;;;;;;;13.48;10.77;;;1.30;88.40;;;;;;5036253;28;20095;-67
2021/01/30 07:33:47;;;;;;;15.73;9.02;;;1.30;90.50;;;;;;5036458;28;20406;-69
2021/01/30 07:36:18;;;;;;;12.50;8.30;;;1.30;91.10;;;;;;5036278;28;20025;-69
2021/01/30 07:39:15;;;;;;;12.38;9.45;;;1.40;91.30;;;;;;5036535;28;20025;-69
2021/01/30 07:41:57;;;;;;;15.18;10.18;;;1.50;91.20;;;;;;5036357;28;20034;-69
2021/01/30 07:44:44;;;;;;;13.95;10.40;;;1.60;91.20;;;;;;5036366;28;20056;-69
2021/01/30 07:47:19;;;;;;;13.90;10.00;;;1.70;91.30;;;;;;5036195;28;20073;-69
2021/01/30 07:49:54;;;;;;;15.63;10.98;;;1.90;91.20;;;;;;5036572;28;20032;-69
2021/01/30 07:52:31;;;;;;;14.30;9.85;;;2.10;90.50;;;;;;5036244;28;20448;-69
2021/01/30 07:55:00;;;;;;;15.13;9.90;;;2.20;84.90;;;;;;5036265;28;20052;-69
2021/01/30 07:58:01;;;;;;;13.75;9.98;;;2.20;83.20;;;;;;5036289;28;20053;-69
2021/01/30 08:00:46;;;;;;;14.27;10.60;;;2.20;83.70;;;;;;5038605;28;20022;-67
2021/01/30 08:03:36;;;;;;;14.85;9.80;;;2.30;86.20;;;;;;5039931;28;20030;-69
2021/01/30 08:06:25;;;;;;;14.35;10.02;;;2.40;87.80;;;;;;5039689;28;20022;-69
2021/01/30 08:09:11;;;;;;;14.30;10.20;;;2.70;87.50;;;;;;5039585;28;20445;-67
2021/01/30 08:11:41;;;;;;;14.88;10.32;;;2.90;87.40;;;;;;5040023;28;20318;-69
2021/01/30 08:14:35;;;;;;;13.80;9.68;;;3.00;86.80;;;;;;5039606;28;20040;-69
2021/01/30 08:17:30;;;;;;;14.25;10.52;;;3.20;87.10;;;;;;5039541;28;20112;-69
2021/01/30 08:20:09;;;;;;;19.92;9.82;;;3.40;85.20;;;;;;5038196;28;20117;-69
2021/01/30 08:22:43;;;;;;;14.93;11.30;;;3.50;85.50;;;;;;5039452;28;20053;-69
2021/01/30 08:25:16;;;;;;;13.10;9.95;;;3.60;86.60;;;;;;5039592;28;20402;-68
2021/01/30 08:27:48;;;;;;;13.18;9.75;;;3.70;85.20;;;;;;5039474;28;20026;-67
2021/01/30 08:30:19;;;;;;;13.52;10.20;;;3.80;85.90;;;;;;5039210;28;20128;-68
2021/01/30 08:32:59;;;;;;;17.60;10.32;;;4.10;85.10;;;;;;5039517;28;20317;-67
2021/01/30 08:35:24;;;;;;;14.95;10.73;;;4.30;82.10;;;;;;5038043;28;20059;-67
2021/01/30 08:37:57;;;;;;;14.13;9.35;;;4.30;82.50;;;;;;5039455;28;20033;-67
2021/01/30 08:40:42;;;;;;;15.98;10.20;;;4.40;83.20;;;;;;5039141;28;20130;-67
2021/01/30 08:43:11;;;;;;;13.30;9.80;;;4.50;81.30;;;;;;5039090;28;20100;-69
2021/01/30 08:45:38;;;;;;;14.90;10.10;;;4.70;81.90;;;;;;5038900;28;20022;-69
2021/01/30 08:48:07;;;;;;;14.25;9.05;;;4.70;81.20;;;;;;5038908;28;20104;-70
2021/01/30 08:50:44;;;;;;;11.35;9.93;;;4.90;80.10;;;;;;5037873;28;20030;-67
2021/01/30 08:53:22;;;;;;;14.15;11.10;;;5.10;77.20;;;;;;5039034;28;20030;-67
2021/01/30 08:55:51;;;;;;;15.60;9.52;;;5.00;76.40;;;;;;5038658;28;20043;-67
2021/01/30 08:58:32;;;;;;;15.55;9.25;;;4.90;76.50;;;;;;5038815;28;20033;-67
2021/01/30 09:01:03;;;;;;;12.88;10.27;;;4.90;75.80;;;;;;5038717;28;20030;-67
2021/01/30 09:03:41;;;;;;;14.85;10.98;;;4.90;75.60;;;;;;5038865;28;20388;-67
2021/01/30 09:06:08;;;;;;;14.80;9.95;;;4.90;75.00;;;;;;5038582;28;20105;-67
2021/01/30 09:08:40;;;;;;;12.23;9.48;;;5.00;75.50;;;;;;5038806;28;20030;-68
2021/01/30 09:11:24;;;;;;;12.00;9.30;;;5.20;75.10;;;;;;5037688;28;20340;-67
2021/01/30 09:14:07;;;;;;;11.90;9.25;;;5.30;74.50;;;;;;5038823;28;20109;-68
2021/01/30 09:16:56;;;;;;;12.75;9.73;;;5.40;74.40;;;;;;5038648;28;20400;-68
2021/01/30 09:19:40;;;;;;;17.77;11.48;;;5.40;74.90;;;;;;5037855;28;20045;-67
2021/01/30 09:22:31;;;;;;;15.70;10.32;;;5.40;75.10;;;;;;5037399;28;20025;-68
2021/01/30 09:25:45;;;;;;;14.65;10.15;;;5.30;75.00;;;;;;5038340;28;20083;-67
2021/01/30 09:28:20;;;;;;;13.00;9.82;;;5.50;74.60;;;;;;5039473;28;20042;-67
2021/01/30 09:30:55;;;;;;;13.43;9.55;;;5.70;73.60;;;;;;5037965;28;20045;-68
2021/01/30 09:33:25;;;;;;;12.93;10.50;;;6.20;73.20;;;;;;5038271;28;20036;-67
2021/01/30 09:35:54;;;;;;;15.13;10.73;;;6.90;71.30;;;;;;5038040;28;20045;-68
2021/01/30 09:38:27;;;;;;;14.75;12.15;;;7.60;67.80;;;;;;5038592;28;20059;-67
2021/01/30 09:41:12;;;;;;;13.23;10.98;;;8.20;66.50;;;;;;5038129;28;20033;-68
2021/01/30 09:43:38;;;;;;;15.50;11.32;;;8.90;63.80;;;;;;5038152;28;20022;-68
2021/01/30 09:46:09;;;;;;;15.90;10.43;;;9.70;61.60;;;;;;5037791;28;20052;-68
2021/01/30 09:48:36;;;;;;;12.15;9.23;;;10.40;60.40;;;;;;5036689;28;20030;-68
2021/01/30 09:51:04;;;;;;;11.48;9.52;;;10.90;59.60;;;;;;5037841;28;20025;-68
2021/01/30 09:53:52;;;;;;;11.82;9.73;;;11.50;58.50;;;;;;5037669;28;20030;-68
2021/01/30 09:56:20;;;;;;;10.50;9.15;;;11.80;57.40;;;;;;5036161;28;20532;-68
2021/01/30 09:58:53;;;;;;;12.23;9.68;;;12.10;55.90;;;;;;5037654;28;20055;-68
2021/01/30 10:01:30;;;;;;;13.82;11.93;;;12.20;57.20;;;;;;5037662;28;20029;-68
2021/01/30 10:03:56;;;;;;;14.40;12.85;;;12.40;55.50;;;;;;5037557;28;20413;-68
2021/01/30 10:06:32;;;;;;;14.60;12.30;;;12.20;56.10;;;;;;5036344;28;20029;-68
2021/01/30 10:09:11;;;;;;;24.45;13.82;;;11.60;58.20;;;;;;5037016;28;20108;-68
2021/01/30 10:11:40;;;;;;;18.15;14.38;;;10.90;60.10;;;;;;5047118;28;20063;-68
2021/01/30 10:14:07;;;;;;;19.25;14.90;;;10.40;61.30;;;;;;5037631;28;20029;-68
2021/01/30 10:16:34;;;;;;;22.80;16.65;;;10.30;61.80;;;;;;5037416;28;20313;-68
2021/01/30 10:19:19;;;;;;;18.10;15.10;;;10.50;62.50;;;;;;5037251;28;20031;-68
2021/01/30 10:21:45;;;;;;;19.30;14.25;;;10.90;61.20;;;;;;5037076;28;20025;-68
2021/01/30 10:24:25;;;;;;;17.23;14.80;;;10.80;61.90;;;;;;5037051;28;20090;-68
2021/01/30 10:26:53;;;;;;;20.52;15.00;;;11.10;60.70;;;;;;5037095;28;20337;-68
2021/01/30 10:29:22;;;;;;;21.15;15.60;;;11.40;60.00;;;;;;5037020;28;20037;-68
2021/01/30 10:32:01;;;;;;;15.32;13.30;;;11.30;60.50;;;;;;5036941;28;20071;-68
2021/01/30 10:34:32;;;;;;;18.58;15.55;;;11.10;60.00;;;;;;5037344;28;20363;-68
2021/01/30 10:37:16;;;;;;;18.83;15.10;;;11.10;60.40;;;;;;5036975;28;20291;-68
2021/01/30 10:39:52;;;;;;;19.95;15.43;;;11.10;60.10;;;;;;5037063;28;20053;-68
2021/01/30 10:42:24;;;;;;;19.47;15.80;;;11.00;61.20;;;;;;5037151;28;20488;-68
2021/01/30 10:45:11;;;;;;;19.33;16.42;;;10.90;61.80;;;;;;5037042;28;20706;-68
2021/01/30 10:47:37;;;;;;;19.70;16.13;;;11.20;61.70;;;;;;5036896;28;20108;-68
2021/01/30 10:50:26;;;;;;;19.45;16.60;;;11.10;60.40;;;;;;5036735;28;20160;-68
2021/01/30 10:52:52;;;;;;;19.48;16.52;;;10.90;61.30;;;;;;5037070;28;20366;-68
2021/01/30 10:55:39;;;;;;;17.40;14.32;;;10.60;61.60;;;;;;5036968;28;20152;-68
2021/01/30 10:58:18;;;;;;;21.90;15.63;;;10.10;62.80;;;;;;5036819;28;20029;-68
2021/01/30 11:01:02;;;;;;;24.17;17.70;;;9.80;64.10;;;;;;5036915;28;20071;-68
2021/01/30 11:03:42;;;;;;;24.00;17.65;;;9.60;64.40;;;;;;5036895;28;20299;-68
2021/01/30 11:06:27;;;;;;;23.02;16.75;;;9.30;65.70;;;;;;5036871;28;20033;-68
2021/01/30 11:08:53;;;;;;;18.25;16.17;;;9.90;63.60;;;;;;5036517;28;20030;-68
2021/01/30 11:11:30;;;;;;;19.40;16.70;;;10.60;62.00;;;;;;5036825;28;20033;-68
2021/01/30 11:13:58;;;;;;;20.27;15.73;;;11.40;60.80;;;;;;5036574;28;20025;-68
2021/01/30 11:16:33;;;;;;;19.30;15.63;;;12.10;58.80;;;;;;5036476;28;20408;-68
2021/01/30 11:18:58;;;;;;;21.85;17.52;;;12.80;57.10;;;;;;5036532;28;20104;-68
2021/01/30 11:21:33;;;;;;;22.27;18.30;;;13.00;56.30;;;;;;5036454;28;20057;-68
2021/01/30 11:24:18;;;;;;;20.95;17.83;;;12.50;57.60;;;;;;5036433;28;20025;-68
2021/01/30 11:26:44;;;;;;;23.95;18.48;;;12.30;58.70;;;;;;5036433;28;20045;-68
2021/01/30 11:29:48;;;;;;;20.33;17.08;;;12.20;58.20;;;;;;5036387;28;20025;-68
2021/01/30 11:32:19;;;;;;;21.40;17.45;;;12.40;57.50;;;;;;5036532;28;20045;-68
2021/01/30 11:34:46;;;;;;;18.15;14.50;;;12.60;57.70;;;;;;5038426;28;20528;-68
2021/01/30 11:37:14;;;;;;;23.65;16.25;;;12.40;56.00;;;;;;5040328;28;20024;-68
2021/01/30 11:39:42;;;;;;;22.40;16.75;;;12.50;57.50;;;;;;5040390;28;20025;-68
2021/01/30 11:42:07;;;;;;;18.70;16.35;;;12.70;57.90;;;;;;5040404;28;20018;-68
2021/01/30 11:44:33;;;;;;;22.02;16.60;;;12.90;56.60;;;;;;5040248;28;20036;-68
2021/01/30 11:46:59;;;;;;;21.13;17.52;;;12.80;57.20;;;;;;5040204;28;20021;-68
2021/01/30 11:49:25;;;;;;;18.80;16.48;;;12.60;57.40;;;;;;5039998;28;20032;-68
2021/01/30 11:51:51;;;;;;;21.40;16.85;;;12.50;57.50;;;;;;5040040;28;20104;-68
2021/01/30 11:54:17;;;;;;;22.58;17.73;;;12.30;58.30;;;;;;5039981;28;20112;-68
2021/01/30 11:56:43;;;;;;;21.27;16.85;;;12.20;58.00;;;;;;5039953;28;20098;-68
2021/01/30 11:59:10;;;;;;;24.58;18.92;;;12.30;57.70;;;;;;5039901;28;20036;-68
2021/01/30 12:01:35;;;;;;;23.48;17.75;;;12.20;58.90;;;;;;5039855;28;20030;-68
2021/01/30 12:04:01;;;;;;;22.33;17.40;;;12.20;58.10;;;;;;5039803;28;20032;-68
2021/01/30 12:06:27;;;;;;;24.20;17.90;;;11.80;59.70;;;;;;5039808;28;20425;-68
2021/01/30 12:08:53;;;;;;;21.05;17.10;;;11.30;58.80;;;;;;5039669;28;20052;-68
2021/01/30 12:11:20;;;;;;;23.88;17.02;;;11.40;60.60;;;;;;5039710;28;20022;-68
2021/01/30 12:13:46;;;;;;;19.80;16.20;;;11.50;60.00;;;;;;5038607;28;20021;-68
2021/01/30 12:16:14;;;;;;;24.15;17.02;;;11.60;57.90;;;;;;5038769;28;20299;-68
2021/01/30 12:18:40;;;;;;;21.02;16.85;;;11.80;58.20;;;;;;5039751;28;20112;-68
2021/01/30 12:21:06;;;;;;;20.23;15.45;;;11.90;57.50;;;;;;5039622;28;20097;-68
2021/01/30 12:23:32;;;;;;;24.30;17.60;;;11.80;57.40;;;;;;5039435;28;20025;-68
2021/01/30 12:26:00;;;;;;;21.25;16.05;;;11.90;58.80;;;;;;5039742;28;20033;-68
2021/01/30 12:28:29;;;;;;;23.42;17.58;;;11.80;59.50;;;;;;5039587;28;20147;-68
2021/01/30 12:30:55;;;;;;;18.73;15.60;;;11.60;60.30;;;;;;5039118;28;20050;-68
2021/01/30 12:33:21;;;;;;;20.48;16.35;;;11.50;59.00;;;;;;5039248;28;20121;-68
2021/01/30 12:35:48;;;;;;;21.75;15.98;;;11.50;59.80;;;;;;5039135;28;20053;-68
2021/01/30 12:38:14;;;;;;;26.83;17.70;;;11.40;59.90;;;;;;5039784;28;20385;-68
2021/01/30 12:40:45;;;;;;;20.70;16.20;;;11.30;60.80;;;;;;5039190;28;20021;-68
2021/01/30 12:43:12;;;;;;;20.15;16.02;;;11.00;61.30;;;;;;5039211;28;20410;-68
2021/01/30 12:45:39;;;;;;;20.15;15.10;;;10.50;63.80;;;;;;5038951;28;20354;-68
2021/01/30 12:48:06;;;;;;;19.23;15.48;;;10.00;63.60;;;;;;5039054;28;20420;-68
2021/01/30 12:50:32;;;;;;;21.02;16.17;;;9.60;64.90;;;;;;5038819;28;20025;-68
2021/01/30 12:52:58;;;;;;;22.05;15.40;;;9.30;64.70;;;;;;5038903;28;20021;-68
2021/01/30 12:55:25;;;;;;;26.40;18.05;;;9.00;65.70;;;;;;5037637;28;20033;-68
2021/01/30 12:57:51;;;;;;;20.50;15.68;;;8.60;67.80;;;;;;5038853;28;20105;-68
2021/01/30 13:00:24;;;;;;;18.33;15.45;;;8.50;68.90;;;;;;5038788;28;20061;-68
2021/01/30 13:02:50;;;;;;;22.75;17.00;;;8.30;68.90;;;;;;5038971;28;20030;-68
2021/01/30 13:05:17;;;;;;;20.58;17.10;;;8.20;69.70;;;;;;5038669;28;20036;-68
2021/01/30 13:07:43;;;;;;;23.52;17.02;;;8.10;70.30;;;;;;5038938;28;20049;-68
2021/01/30 13:10:12;;;;;;;25.58;16.83;;;8.10;70.60;;;;;;5037530;28;20060;-67
2021/01/30 13:12:38;;;;;;;22.63;17.08;;;8.00;70.20;;;;;;5038492;28;20022;-68
2021/01/30 13:15:06;;;;;;;20.50;16.65;;;7.90;71.00;;;;;;5038604;28;20101;-68
2021/01/30 13:17:32;;;;;;;25.15;17.98;;;7.90;72.20;;;;;;5038724;28;20430;-68